This is the latest recevied weather packets stored in our database for station/object OK0EK-12. If no packets are shown the sender has not sent any weather packets the latest 10 day(s).
| Time | Temp. | Humidity | Pressure | Rain* | Wind** | Luminosity | Snow |
|---|---|---|---|---|---|---|---|
| 1777708227 | 25° C | 27% | 1104.7 hPa | - | - | - | - |
| 1777707628 | 27.78° C | 24% | 1104.8 hPa | - | - | - | - |
| 1777707029 | 24.44° C | 27% | 1104.9 hPa | - | - | - | - |
| 1777706430 | 23.89° C | 28% | 1104.9 hPa | - | - | - | - |
| 1777705831 | 24.44° C | 27% | 1104.8 hPa | - | - | - | - |
| 1777705232 | 23.33° C | 30% | 1104.7 hPa | - | - | - | - |
| 1777704634 | 22.78° C | 33% | 1104.9 hPa | - | - | - | - |
| 1777704042 | 20.56° C | 37% | 1104.8 hPa | - | - | - | - |
| 1777703435 | 20.56° C | 39% | 1104.9 hPa | - | - | - | - |
| 1777702842 | 19.44° C | 39% | 1105 hPa | - | - | - | - |
| 1777702238 | 17.78° C | 43% | 1104.9 hPa | - | - | - | - |
| 1777701646 | 17.22° C | 45% | 1104.9 hPa | - | - | - | - |
| 1777701040 | 14.44° C | 49% | 1105 hPa | - | - | - | - |
| 1777700440 | 13.89° C | 49% | 1105 hPa | - | - | - | - |
| 1777699842 | 13.89° C | 50% | 1105 hPa | - | - | - | - |
| 1777699243 | 13.33° C | 51% | 1105.1 hPa | - | - | - | - |
| 1777698644 | 12.22° C | 56% | 1105.1 hPa | - | - | - | - |
| 1777698045 | 9.44° C | 63% | 1105.1 hPa | - | - | - | - |
| 1777697446 | 8.33° C | 65% | 1105 hPa | - | - | - | - |
| 1777696847 | 7.78° C | 67% | 1105.1 hPa | - | - | - | - |
| 1777696249 | 7.22° C | 71% | 1105 hPa | - | - | - | - |
| 1777695649 | 5.56° C | 77% | 1105 hPa | - | - | - | - |
| 1777695050 | 3.89° C | 82% | 1105 hPa | - | - | - | - |
| 1777694451 | 3.33° C | 82% | 1105 hPa | - | - | - | - |
| 1777693852 | 3.33° C | 82% | 1104.9 hPa | - | - | - | - |
* Rain since midnight (hover to see other rain measurements)
** Current wind speed in m/s (hover to see current wind gust speed)